Time;durP1;ratioP1;P1;durP2;ratioP2;P2;SDS_P1;SDS_P2;PMS_P1;PMS_P2;Temp;Humidity;BMP_temperature;BMP_pressure;BME280_temperature;BME280_humidity;BME280_pressure;Samples;Min_cycle;Max_cycle;Signal;HPM_P1;HPM_P2
2023/08/29 00:01:32;;;;;;;4.60;4.30;;;;;;;;;;5100694;28;20389;-85
2023/08/29 00:03:58;;;;;;;4.68;4.40;;;;;;;;;;5110745;28;20427;-84
2023/08/29 00:06:24;;;;;;;5.00;4.70;;;;;;;;;;5121745;28;20400;-84
2023/08/29 00:08:50;;;;;;;5.13;4.82;;;;;;;;;;5122449;28;20412;-84
2023/08/29 00:11:16;;;;;;;5.07;4.68;;;;;;;;;;5106062;28;20851;-84
2023/08/29 00:13:43;;;;;;;4.65;4.25;;;;;;;;;;5106970;28;20374;-85
2023/08/29 00:16:12;;;;;;;4.57;4.28;;;;;;;;;;5094868;28;20436;-85
2023/08/29 00:18:38;;;;;;;4.45;4.05;;;;;;;;;;5106204;28;20374;-84
2023/08/29 00:21:04;;;;;;;4.10;3.80;;;;;;;;;;5101006;28;20738;-84
2023/08/29 00:23:30;;;;;;;3.70;3.40;;;;;;;;;;5106439;28;20424;-85
2023/08/29 00:25:56;;;;;;;3.80;3.50;;;;;;;;;;5121494;28;20373;-84
2023/08/29 00:28:24;;;;;;;3.83;3.63;;;;;;;;;;5103506;28;20380;-84
2023/08/29 00:30:50;;;;;;;3.37;3.17;;;;;;;;;;5103004;28;20488;-84
2023/08/29 00:33:16;;;;;;;3.47;3.17;;;;;;;;;;5120935;28;20917;-85
2023/08/29 00:35:42;;;;;;;4.40;3.20;;;;;;;;;;5107358;28;20384;-84
2023/08/29 00:38:10;;;;;;;3.20;2.90;;;;;;;;;;5121704;28;20379;-86
2023/08/29 00:40:37;;;;;;;3.20;3.00;;;;;;;;;;5120995;28;20409;-85
2023/08/29 00:43:03;;;;;;;3.20;3.00;;;;;;;;;;5102607;28;20413;-84
2023/08/29 00:45:31;;;;;;;3.38;3.08;;;;;;;;;;5120705;28;20445;-84
2023/08/29 00:47:57;;;;;;;3.20;3.00;;;;;;;;;;5121561;28;20406;-84
2023/08/29 00:50:23;;;;;;;3.65;3.35;;;;;;;;;;5120940;28;20408;-84
2023/08/29 00:52:49;;;;;;;3.15;2.95;;;;;;;;;;5099708;28;20386;-84
2023/08/29 00:55:16;;;;;;;3.47;3.00;;;;;;;;;;5095225;28;20368;-85
2023/08/29 00:57:42;;;;;;;3.45;3.15;;;;;;;;;;5120917;28;20381;-84
2023/08/29 01:00:08;;;;;;;3.53;3.33;;;;;;;;;;5121248;28;20384;-84
2023/08/29 01:02:34;;;;;;;4.07;3.78;;;;;;;;;;5107502;28;20943;-84
2023/08/29 01:05:00;;;;;;;3.80;3.50;;;;;;;;;;5111349;28;20413;-85
2023/08/29 01:07:26;;;;;;;4.35;3.95;;;;;;;;;;5119438;28;20380;-86
2023/08/29 01:09:52;;;;;;;4.85;4.55;;;;;;;;;;5104705;28;20394;-85
2023/08/29 01:12:19;;;;;;;5.13;4.72;;;;;;;;;;5108682;28;20443;-85
2023/08/29 01:14:55;;;;;;;5.22;4.90;;;;;;;;;;5099874;28;20729;-85
2023/08/29 01:17:47;;;;;;;5.63;5.32;;;;;;;;;;5101031;28;20786;-84
2023/08/29 01:20:13;;;;;;;5.97;5.47;;;;;;;;;;5114158;28;20423;-85
2023/08/29 01:22:39;;;;;;;6.45;5.82;;;;;;;;;;5119244;28;20924;-84
2023/08/29 01:25:05;;;;;;;5.90;5.50;;;;;;;;;;5101166;28;20386;-84
2023/08/29 01:27:32;;;;;;;6.20;5.77;;;;;;;;;;5099748;28;20397;-84
2023/08/29 01:29:58;;;;;;;5.40;5.00;;;;;;;;;;5092443;28;20730;-85
2023/08/29 01:32:25;;;;;;;5.13;4.82;;;;;;;;;;5106388;28;20388;-85
2023/08/29 01:34:52;;;;;;;5.90;5.40;;;;;;;;;;5118824;28;20386;-85
2023/08/29 01:37:18;;;;;;;4.90;4.60;;;;;;;;;;5104753;28;20376;-85
2023/08/29 01:39:44;;;;;;;5.75;5.35;;;;;;;;;;5092251;28;20384;-85
2023/08/29 01:42:09;;;;;;;5.63;5.20;;;;;;;;;;5101489;28;20384;-85
2023/08/29 01:44:35;;;;;;;5.72;5.32;;;;;;;;;;5110936;28;20421;-85
2023/08/29 01:47:01;;;;;;;5.03;4.63;;;;;;;;;;5113247;28;20373;-84
2023/08/29 01:49:28;;;;;;;5.10;4.80;;;;;;;;;;5119991;28;20490;-85
2023/08/29 01:51:54;;;;;;;4.80;4.50;;;;;;;;;;5119335;28;20372;-85
2023/08/29 01:54:20;;;;;;;5.05;4.68;;;;;;;;;;5107336;28;20401;-85
2023/08/29 01:56:46;;;;;;;4.80;4.50;;;;;;;;;;5090766;28;20511;-85
2023/08/29 01:59:12;;;;;;;4.88;4.57;;;;;;;;;;5099388;28;20386;-85
2023/08/29 02:01:38;;;;;;;4.82;4.50;;;;;;;;;;5106579;28;20842;-85
2023/08/29 02:04:04;;;;;;;5.35;4.95;;;;;;;;;;5106050;28;20545;-85
2023/08/29 02:06:30;;;;;;;5.68;5.18;;;;;;;;;;5101274;28;20392;-85
2023/08/29 02:08:56;;;;;;;5.60;5.20;;;;;;;;;;5119579;28;20455;-85
2023/08/29 02:11:22;;;;;;;5.13;4.63;;;;;;;;;;5108577;28;20723;-85
2023/08/29 02:13:48;;;;;;;5.00;4.60;;;;;;;;;;5117596;28;20380;-85
2023/08/29 02:16:14;;;;;;;4.50;4.20;;;;;;;;;;5120283;28;20399;-85
2023/08/29 02:18:41;;;;;;;5.43;4.87;;;;;;;;;;5105672;28;20386;-85
2023/08/29 02:21:07;;;;;;;5.60;4.63;;;;;;;;;;5119429;28;20908;-85
2023/08/29 02:23:33;;;;;;;5.82;5.10;;;;;;;;;;5119668;28;20408;-85
2023/08/29 02:26:03;;;;;;;5.38;4.88;;;;;;;;;;5116087;28;20458;-84
2023/08/29 02:28:33;;;;;;;5.25;4.95;;;;;;;;;;5106926;28;20730;-85
2023/08/29 02:31:06;;;;;;;4.85;4.45;;;;;;;;;;5091034;28;20386;-85
2023/08/29 02:33:34;;;;;;;4.95;4.55;;;;;;;;;;5104438;28;20371;-85
2023/08/29 02:36:00;;;;;;;4.82;4.53;;;;;;;;;;5084757;28;20376;-85
2023/08/29 02:38:26;;;;;;;5.88;5.47;;;;;;;;;;5099805;28;20377;-85
2023/08/29 02:40:52;;;;;;;5.47;4.97;;;;;;;;;;5116936;28;20878;-84
2023/08/29 02:43:18;;;;;;;5.90;5.30;;;;;;;;;;5114965;28;20417;-85
2023/08/29 02:45:44;;;;;;;5.32;4.93;;;;;;;;;;5116144;28;20451;-85
2023/08/29 02:48:10;;;;;;;4.87;4.47;;;;;;;;;;5116653;28;20391;-84
2023/08/29 02:50:37;;;;;;;4.32;4.03;;;;;;;;;;5097534;28;20392;-85
2023/08/29 02:53:03;;;;;;;4.47;4.18;;;;;;;;;;5096436;28;20402;-85
2023/08/29 02:55:29;;;;;;;4.50;4.20;;;;;;;;;;5118992;28;20396;-85
2023/08/29 02:57:55;;;;;;;4.65;4.18;;;;;;;;;;5118470;28;20412;-85
2023/08/29 03:00:21;;;;;;;4.95;4.60;;;;;;;;;;5099959;28;20876;-85
2023/08/29 03:02:47;;;;;;;4.60;4.30;;;;;;;;;;5099854;28;20416;-85
2023/08/29 03:05:13;;;;;;;4.53;4.22;;;;;;;;;;5113900;28;20381;-85
2023/08/29 03:07:39;;;;;;;4.97;4.65;;;;;;;;;;5116192;28;20388;-85
2023/08/29 03:10:05;;;;;;;4.63;4.32;;;;;;;;;;5118474;28;20380;-85
2023/08/29 03:12:31;;;;;;;4.78;4.45;;;;;;;;;;5109590;28;20907;-85
2023/08/29 03:14:57;;;;;;;5.65;4.65;;;;;;;;;;5099259;28;20413;-85
2023/08/29 03:17:23;;;;;;;5.15;4.85;;;;;;;;;;5102695;28;20437;-84
2023/08/29 03:19:49;;;;;;;4.72;4.43;;;;;;;;;;5122524;28;20384;-85
2023/08/29 03:22:15;;;;;;;4.43;4.13;;;;;;;;;;5122006;28;20828;-84
2023/08/29 03:24:45;;;;;;;4.50;4.10;;;;;;;;;;5103248;28;20506;-85
2023/08/29 03:27:11;;;;;;;4.20;3.90;;;;;;;;;;5118469;28;20772;-85
2023/08/29 03:29:37;;;;;;;4.05;3.65;;;;;;;;;;5092802;28;20388;-85
2023/08/29 03:32:03;;;;;;;5.00;4.70;;;;;;;;;;5092130;28;20377;-85
2023/08/29 03:34:29;;;;;;;5.70;5.20;;;;;;;;;;5122259;28;20376;-85
2023/08/29 03:36:55;;;;;;;6.00;5.50;;;;;;;;;;5115134;28;20390;-85
2023/08/29 03:39:21;;;;;;;5.57;5.18;;;;;;;;;;5109954;28;20437;-85
2023/08/29 03:41:47;;;;;;;4.57;4.27;;;;;;;;;;5114886;28;20470;-85
2023/08/29 03:44:13;;;;;;;5.20;4.88;;;;;;;;;;5112604;28;20445;-85
2023/08/29 03:46:39;;;;;;;5.03;4.63;;;;;;;;;;5104658;28;20711;-85
2023/08/29 03:49:05;;;;;;;4.45;4.05;;;;;;;;;;5112891;28;20380;-85
2023/08/29 03:51:31;;;;;;;3.88;3.60;;;;;;;;;;5122150;28;20451;-85
2023/08/29 03:53:57;;;;;;;4.25;3.95;;;;;;;;;;5103352;28;20400;-85
2023/08/29 03:56:23;;;;;;;5.20;4.80;;;;;;;;;;5107257;28;20377;-85
2023/08/29 03:58:49;;;;;;;5.00;4.60;;;;;;;;;;5121445;28;20380;-85
2023/08/29 04:01:19;;;;;;;5.50;5.10;;;;;;;;;;5100571;28;20380;-85
2023/08/29 04:03:45;;;;;;;4.85;4.45;;;;;;;;;;5096571;28;20416;-85
2023/08/29 04:06:11;;;;;;;4.88;4.57;;;;;;;;;;5111574;28;20450;-85
2023/08/29 04:08:37;;;;;;;4.90;4.50;;;;;;;;;;5112202;28;20386;-85
2023/08/29 04:11:04;;;;;;;5.05;4.65;;;;;;;;;;5099104;28;20745;-85
2023/08/29 04:13:30;;;;;;;5.05;4.60;;;;;;;;;;5115737;28;20378;-85
2023/08/29 04:16:02;;;;;;;6.25;5.65;;;;;;;;;;5121576;28;20387;-85
2023/08/29 04:18:28;;;;;;;5.50;5.00;;;;;;;;;;5119871;28;20853;-85
2023/08/29 04:20:54;;;;;;;5.38;4.97;;;;;;;;;;5121124;28;20392;-85
2023/08/29 04:23:20;;;;;;;6.30;5.90;;;;;;;;;;5100221;28;20888;-86
2023/08/29 04:25:46;;;;;;;6.07;5.68;;;;;;;;;;5119034;28;20372;-85
2023/08/29 04:28:19;;;;;;;6.20;5.80;;;;;;;;;;5119945;28;20412;-86
2023/08/29 04:30:45;;;;;;;6.63;6.23;;;;;;;;;;5114498;28;20394;-85
2023/08/29 04:33:11;;;;;;;6.65;5.97;;;;;;;;;;5111778;28;20388;-85
2023/08/29 04:35:37;;;;;;;6.10;5.70;;;;;;;;;;5085592;28;20390;-86
2023/08/29 04:38:03;;;;;;;6.47;5.97;;;;;;;;;;5100873;28;20441;-85
2023/08/29 04:40:29;;;;;;;6.28;5.68;;;;;;;;;;5095467;28;20447;-85
2023/08/29 04:42:55;;;;;;;6.05;5.65;;;;;;;;;;5100638;28;20452;-87
2023/08/29 04:45:23;;;;;;;6.07;5.67;;;;;;;;;;5099192;28;20413;-85
2023/08/29 04:47:49;;;;;;;5.65;5.20;;;;;;;;;;5104509;28;20496;-85
2023/08/29 04:50:15;;;;;;;5.70;5.30;;;;;;;;;;5113306;28;20376;-87
2023/08/29 04:52:41;;;;;;;5.28;4.90;;;;;;;;;;5098333;28;20383;-84
2023/08/29 04:55:07;;;;;;;5.65;5.22;;;;;;;;;;5106490;28;20448;-86
2023/08/29 04:57:33;;;;;;;5.67;5.17;;;;;;;;;;5100699;28;20462;-84
2023/08/29 05:00:00;;;;;;;5.15;4.75;;;;;;;;;;5089117;28;20380;-85
2023/08/29 05:02:26;;;;;;;5.20;4.88;;;;;;;;;;5105942;28;20384;-85
2023/08/29 05:04:52;;;;;;;5.63;5.20;;;;;;;;;;5115366;28;20720;-86
2023/08/29 05:07:19;;;;;;;5.85;5.45;;;;;;;;;;5101332;28;20468;-86
2023/08/29 05:09:45;;;;;;;5.95;5.55;;;;;;;;;;5115980;28;20803;-84
2023/08/29 05:12:11;;;;;;;5.45;5.05;;;;;;;;;;5114070;28;20370;-84
2023/08/29 05:14:41;;;;;;;5.77;5.37;;;;;;;;;;5112804;28;20433;-84
2023/08/29 05:17:10;;;;;;;5.75;5.35;;;;;;;;;;5120500;28;20380;-84
2023/08/29 05:19:36;;;;;;;6.13;5.63;;;;;;;;;;5101570;28;20379;-85
2023/08/29 05:22:02;;;;;;;7.22;5.80;;;;;;;;;;5101961;28;20405;-85
2023/08/29 05:24:28;;;;;;;6.82;6.32;;;;;;;;;;5099395;28;20436;-84
2023/08/29 05:26:54;;;;;;;6.78;6.28;;;;;;;;;;5101120;28;20381;-85
2023/08/29 05:29:20;;;;;;;6.78;6.22;;;;;;;;;;5102064;28;20368;-85
2023/08/29 05:31:46;;;;;;;7.97;7.18;;;;;;;;;;5122040;28;20391;-84
2023/08/29 05:34:12;;;;;;;7.68;7.07;;;;;;;;;;5102462;28;20380;-85
2023/08/29 05:36:38;;;;;;;7.95;7.25;;;;;;;;;;5121256;28;20380;-84
2023/08/29 05:39:04;;;;;;;8.13;7.50;;;;;;;;;;5118639;28;20426;-85
2023/08/29 05:41:31;;;;;;;8.85;8.25;;;;;;;;;;5099489;28;20381;-85
2023/08/29 05:43:57;;;;;;;8.85;8.23;;;;;;;;;;5101160;28;20432;-84
2023/08/29 05:46:23;;;;;;;9.20;8.47;;;;;;;;;;5101347;28;20393;-85
2023/08/29 05:48:49;;;;;;;8.73;8.13;;;;;;;;;;5100916;28;20452;-87
2023/08/29 05:51:15;;;;;;;9.50;8.80;;;;;;;;;;5100212;28;20391;-85
2023/08/29 05:53:42;;;;;;;9.70;9.00;;;;;;;;;;5102167;28;20393;-85
2023/08/29 05:56:07;;;;;;;8.93;8.23;;;;;;;;;;5115746;28;20386;-85
2023/08/29 05:58:34;;;;;;;9.73;8.95;;;;;;;;;;5091456;28;20456;-85
2023/08/29 06:01:00;;;;;;;10.05;9.15;;;;;;;;;;5102918;28;20890;-85
2023/08/29 06:03:27;;;;;;;10.00;9.30;;;;;;;;;;5097013;28;20500;-84
2023/08/29 06:05:54;;;;;;;10.68;9.95;;;;;;;;;;5113554;28;20382;-84
2023/08/29 06:08:20;;;;;;;9.60;8.90;;;;;;;;;;5101194;28;20903;-84
2023/08/29 06:10:46;;;;;;;9.00;8.40;;;;;;;;;;5119543;28;20412;-85
2023/08/29 06:13:12;;;;;;;8.85;8.25;;;;;;;;;;5118749;28;20429;-83
2023/08/29 06:15:38;;;;;;;9.45;8.63;;;;;;;;;;5120660;28;20918;-84
2023/08/29 06:18:04;;;;;;;8.57;7.97;;;;;;;;;;5088314;28;20427;-84
2023/08/29 06:20:31;;;;;;;8.50;7.90;;;;;;;;;;5104175;28;20403;-84
2023/08/29 06:22:58;;;;;;;8.57;7.97;;;;;;;;;;5118197;28;20411;-85
2023/08/29 06:25:24;;;;;;;9.60;8.90;;;;;;;;;;5117290;28;20441;-86
2023/08/29 06:27:50;;;;;;;10.13;9.43;;;;;;;;;;5107426;28;20386;-85
2023/08/29 06:30:16;;;;;;;8.82;8.18;;;;;;;;;;5111856;28;20376;-85
2023/08/29 06:32:43;;;;;;;8.48;7.97;;;;;;;;;;5118730;28;20398;-86
2023/08/29 06:35:11;;;;;;;8.93;8.25;;;;;;;;;;5118494;28;20379;-84
2023/08/29 06:37:37;;;;;;;8.10;7.60;;;;;;;;;;5118192;28;20376;-85
2023/08/29 06:40:06;;;;;;;9.13;8.45;;;;;;;;;;5119728;28;20408;-84
2023/08/29 06:42:32;;;;;;;8.80;8.23;;;;;;;;;;5118995;28;20376;-84
2023/08/29 06:44:58;;;;;;;9.23;8.52;;;;;;;;;;5119549;28;20372;-84
2023/08/29 06:47:27;;;;;;;10.30;9.45;;;;;;;;;;5118858;28;20464;-85
2023/08/29 06:49:54;;;;;;;10.80;10.05;;;;;;;;;;5100044;28;20392;-84
2023/08/29 06:52:21;;;;;;;11.90;11.02;;;;;;;;;;5104595;28;20377;-84
2023/08/29 06:54:46;;;;;;;13.68;12.68;;;;;;;;;;5121090;28;20472;-84
2023/08/29 06:57:12;;;;;;;14.80;13.70;;;;;;;;;;5121971;28;20411;-83
2023/08/29 06:59:39;;;;;;;13.82;12.77;;;;;;;;;;5102661;28;20380;-84
2023/08/29 07:02:05;;;;;;;14.60;13.43;;;;;;;;;;5115190;28;20878;-84
2023/08/29 07:04:31;;;;;;;13.15;12.25;;;;;;;;;;5083249;28;20416;-84
2023/08/29 07:06:57;;;;;;;15.88;14.68;;;;;;;;;;5106291;28;20403;-84
2023/08/29 07:09:23;;;;;;;17.90;16.17;;;;;;;;;;5088812;28;20384;-83
2023/08/29 07:11:49;;;;;;;15.83;14.53;;;;;;;;;;5101443;28;20439;-83
2023/08/29 07:14:15;;;;;;;16.23;14.98;;;;;;;;;;5110617;28;20888;-84
2023/08/29 07:16:41;;;;;;;16.02;14.85;;;;;;;;;;5088353;28;20449;-84
2023/08/29 07:19:07;;;;;;;17.98;16.33;;;;;;;;;;5095061;28;20386;-84
2023/08/29 07:21:33;;;;;;;16.07;14.87;;;;;;;;;;5114531;28;20373;-84
2023/08/29 07:23:59;;;;;;;16.90;15.50;;;;;;;;;;5116051;28;20425;-84
2023/08/29 07:26:26;;;;;;;19.10;17.33;;;;;;;;;;5113335;28;20404;-84
2023/08/29 07:28:52;;;;;;;19.67;18.00;;;;;;;;;;5122056;28;20388;-84
2023/08/29 07:31:18;;;;;;;18.40;16.88;;;;;;;;;;5121909;28;20387;-84
2023/08/29 07:33:44;;;;;;;16.95;15.55;;;;;;;;;;5117082;28;20407;-83
2023/08/29 07:36:10;;;;;;;17.25;15.85;;;;;;;;;;5114393;28;20374;-84
2023/08/29 07:38:36;;;;;;;17.10;15.70;;;;;;;;;;5115228;28;20428;-84
2023/08/29 07:41:02;;;;;;;18.38;16.83;;;;;;;;;;5121744;28;20424;-84
2023/08/29 07:43:28;;;;;;;18.80;17.35;;;;;;;;;;5121872;28;20436;-84
2023/08/29 07:45:55;;;;;;;19.50;17.73;;;;;;;;;;5088975;28;20870;-85
2023/08/29 07:48:20;;;;;;;18.70;17.02;;;;;;;;;;5114837;28;20383;-84
2023/08/29 07:50:46;;;;;;;18.33;16.83;;;;;;;;;;5101462;28;20783;-86
2023/08/29 07:53:13;;;;;;;19.83;17.93;;;;;;;;;;5120171;28;20368;-83
2023/08/29 07:55:41;;;;;;;16.60;15.30;;;;;;;;;;5109064;28;20458;-84
2023/08/29 07:58:07;;;;;;;15.95;14.55;;;;;;;;;;5120549;28;20369;-83
2023/08/29 08:00:33;;;;;;;14.90;13.70;;;;;;;;;;5109045;28;20386;-84
2023/08/29 08:03:00;;;;;;;15.35;14.05;;;;;;;;;;5103551;28;20812;-84
2023/08/29 08:05:26;;;;;;;15.43;14.32;;;;;;;;;;5121877;28;20745;-84
2023/08/29 08:07:52;;;;;;;15.30;14.20;;;;;;;;;;5109774;28;20378;-83
2023/08/29 08:10:19;;;;;;;15.55;14.32;;;;;;;;;;5119730;28;20377;-83
2023/08/29 08:12:47;;;;;;;15.77;14.57;;;;;;;;;;5102375;28;20381;-83
2023/08/29 08:15:13;;;;;;;15.37;14.17;;;;;;;;;;5117310;28;20571;-84
2023/08/29 08:17:39;;;;;;;15.95;14.75;;;;;;;;;;5093399;28;20474;-84
2023/08/29 08:20:07;;;;;;;16.13;14.82;;;;;;;;;;5115815;28;20372;-83
2023/08/29 08:22:34;;;;;;;13.82;12.73;;;;;;;;;;5121633;28;20411;-84
2023/08/29 08:25:00;;;;;;;13.65;12.73;;;;;;;;;;5088712;28;20915;-84
2023/08/29 08:27:26;;;;;;;13.77;12.77;;;;;;;;;;5120724;28;20408;-83
2023/08/29 08:29:52;;;;;;;12.23;11.32;;;;;;;;;;5121736;28;20388;-84
2023/08/29 08:32:18;;;;;;;11.60;10.80;;;;;;;;;;5087711;28;20417;-83
2023/08/29 08:34:44;;;;;;;10.20;9.40;;;;;;;;;;5102856;28;20861;-84
2023/08/29 08:37:10;;;;;;;10.00;9.30;;;;;;;;;;5102549;28;20389;-83
2023/08/29 08:39:36;;;;;;;10.82;10.02;;;;;;;;;;5102826;28;20412;-83
2023/08/29 08:42:03;;;;;;;8.68;8.07;;;;;;;;;;5121188;28;20376;-85
2023/08/29 08:44:30;;;;;;;8.23;7.63;;;;;;;;;;5106393;28;20742;-84
2023/08/29 08:46:57;;;;;;;7.22;6.72;;;;;;;;;;5102890;28;20456;-83
2023/08/29 08:49:23;;;;;;;7.47;6.97;;;;;;;;;;5112668;28;20448;-83
2023/08/29 08:51:49;;;;;;;7.40;6.82;;;;;;;;;;5120678;28;20389;-83
2023/08/29 08:54:15;;;;;;;6.60;6.10;;;;;;;;;;5102923;28;20391;-83
2023/08/29 08:56:42;;;;;;;7.10;6.60;;;;;;;;;;5102585;28;20876;-84
2023/08/29 08:59:09;;;;;;;5.97;5.43;;;;;;;;;;5110565;28;20377;-83
2023/08/29 09:01:35;;;;;;;5.32;4.93;;;;;;;;;;5099175;28;20508;-83
2023/08/29 09:04:01;;;;;;;4.45;4.05;;;;;;;;;;5092776;28;20416;-85
2023/08/29 09:06:27;;;;;;;4.50;4.20;;;;;;;;;;5121112;28;20376;-83
2023/08/29 09:08:56;;;;;;;3.50;3.30;;;;;;;;;;5120401;28;20388;-83
2023/08/29 09:11:22;;;;;;;3.70;3.50;;;;;;;;;;5121045;28;20710;-84
2023/08/29 09:13:49;;;;;;;4.18;3.88;;;;;;;;;;5118778;28;20495;-83
2023/08/29 09:16:16;;;;;;;2.72;2.53;;;;;;;;;;5115716;28;20404;-83
2023/08/29 09:18:45;;;;;;;3.22;3.03;;;;;;;;;;5118115;28;20383;-83
2023/08/29 09:21:21;;;;;;;2.67;2.47;;;;;;;;;;5109540;28;20774;-83
2023/08/29 09:23:47;;;;;;;2.90;2.70;;;;;;;;;;5109526;28;20919;-83
2023/08/29 09:26:13;;;;;;;2.97;2.78;;;;;;;;;;5119372;28;20376;-83
2023/08/29 09:28:40;;;;;;;2.78;2.58;;;;;;;;;;5120138;28;20381;-83
2023/08/29 09:31:06;;;;;;;2.92;2.63;;;;;;;;;;5102325;28;20786;-83
2023/08/29 09:33:33;;;;;;;3.25;3.05;;;;;;;;;;5119135;28;20416;-83
2023/08/29 09:36:02;;;;;;;2.72;2.53;;;;;;;;;;5106007;28;20388;-83
2023/08/29 09:38:29;;;;;;;2.50;2.30;;;;;;;;;;5101901;28;20388;-84
2023/08/29 09:40:55;;;;;;;2.20;2.10;;;;;;;;;;5113268;28;20435;-83
2023/08/29 09:43:21;;;;;;;2.17;2.08;;;;;;;;;;5110445;28;20466;-83
2023/08/29 09:45:53;;;;;;;1.98;1.77;;;;;;;;;;5116653;28;20380;-83
2023/08/29 09:48:20;;;;;;;2.35;2.08;;;;;;;;;;5104705;28;20378;-83
2023/08/29 09:50:46;;;;;;;2.90;2.10;;;;;;;;;;5099529;28;20386;-83
2023/08/29 09:53:16;;;;;;;2.15;1.95;;;;;;;;;;5088959;28;20393;-84
2023/08/29 09:55:48;;;;;;;1.95;1.80;;;;;;;;;;5104876;28;20377;-83
2023/08/29 09:58:16;;;;;;;2.05;1.95;;;;;;;;;;5119746;28;20383;-83
2023/08/29 10:00:43;;;;;;;2.50;2.30;;;;;;;;;;5101073;28;20397;-84
2023/08/29 10:03:09;;;;;;;3.30;2.50;;;;;;;;;;5104884;28;20448;-83
2023/08/29 10:05:36;;;;;;;2.60;2.40;;;;;;;;;;5114494;28;20705;-83
2023/08/29 10:08:28;;;;;;;2.03;1.83;;;;;;;;;;5120002;28;20380;-83
2023/08/29 10:10:56;;;;;;;1.50;1.40;;;;;;;;;;5104061;28;20378;-83
2023/08/29 10:13:23;;;;;;;2.15;1.95;;;;;;;;;;5120629;28;20376;-83
2023/08/29 10:15:49;;;;;;;1.50;1.40;;;;;;;;;;5119601;28;20735;-83
2023/08/29 10:18:16;;;;;;;1.52;1.42;;;;;;;;;;5120296;28;20444;-83
2023/08/29 10:20:45;;;;;;;1.60;1.50;;;;;;;;;;5120186;28;20855;-83
2023/08/29 10:23:15;;;;;;;1.55;1.45;;;;;;;;;;5117524;28;20416;-83
2023/08/29 10:25:42;;;;;;;1.83;1.73;;;;;;;;;;5105616;28;20736;-83
2023/08/29 10:28:10;;;;;;;1.80;1.70;;;;;;;;;;5110523;28;20404;-83
2023/08/29 10:30:37;;;;;;;2.10;1.90;;;;;;;;;;5109250;28;20826;-84
2023/08/29 10:33:04;;;;;;;2.25;2.08;;;;;;;;;;5120482;28;20385;-84
2023/08/29 10:35:31;;;;;;;2.50;2.30;;;;;;;;;;5119796;28;20384;-83
2023/08/29 10:38:00;;;;;;;2.40;2.20;;;;;;;;;;5119776;28;20834;-83
2023/08/29 10:40:33;;;;;;;2.42;2.25;;;;;;;;;;5105212;28;20385;-83
2023/08/29 10:43:00;;;;;;;2.65;2.45;;;;;;;;;;5119113;28;20436;-83
2023/08/29 10:45:45;;;;;;;2.70;2.50;;;;;;;;;;5119155;28;20437;-83
2023/08/29 10:48:16;;;;;;;2.20;2.00;;;;;;;;;;5116816;28;20376;-84
2023/08/29 10:50:46;;;;;;;1.80;1.70;;;;;;;;;;5117923;28;20410;-84
2023/08/29 10:53:19;;;;;;;2.40;2.20;;;;;;;;;;5108463;28;20375;-84
2023/08/29 10:56:02;;;;;;;2.53;2.42;;;;;;;;;;5114861;28;20379;-84
2023/08/29 10:58:38;;;;;;;2.93;2.73;;;;;;;;;;5120309;28;20399;-83
2023/08/29 11:01:04;;;;;;;2.85;2.65;;;;;;;;;;5118763;28;20372;-83
2023/08/29 11:03:52;;;;;;;2.55;2.35;;;;;;;;;;5106034;28;20415;-84
2023/08/29 11:06:19;;;;;;;2.60;2.50;;;;;;;;;;5106598;28;20402;-84
2023/08/29 11:08:45;;;;;;;2.78;2.58;;;;;;;;;;5106249;28;20376;-84
2023/08/29 11:11:21;;;;;;;2.85;2.58;;;;;;;;;;5119913;28;20387;-84
2023/08/29 11:13:55;;;;;;;3.10;2.90;;;;;;;;;;5120453;28;20412;-84
2023/08/29 11:16:21;;;;;;;2.80;2.60;;;;;;;;;;5113498;28;20445;-84
2023/08/29 11:18:47;;;;;;;3.17;2.97;;;;;;;;;;5118147;28;20795;-84
2023/08/29 11:21:15;;;;;;;3.30;3.10;;;;;;;;;;5121224;28;20400;-84
2023/08/29 11:23:42;;;;;;;3.10;2.90;;;;;;;;;;5120459;28;20451;-84
2023/08/29 11:26:08;;;;;;;3.80;3.50;;;;;;;;;;5093956;28;20747;-84
2023/08/29 11:28:38;;;;;;;4.18;3.90;;;;;;;;;;5116773;28;20376;-84
2023/08/29 11:31:05;;;;;;;5.18;4.78;;;;;;;;;;5122004;28;20395;-84
2023/08/29 11:33:34;;;;;;;5.20;4.80;;;;;;;;;;5118350;28;20380;-84
2023/08/29 11:36:02;;;;;;;5.30;4.90;;;;;;;;;;5114138;28;20725;-84
2023/08/29 11:38:29;;;;;;;4.78;4.47;;;;;;;;;;5121410;28;20747;-84
2023/08/29 11:40:55;;;;;;;3.30;3.10;;;;;;;;;;5122793;28;20394;-84
2023/08/29 11:43:22;;;;;;;2.97;2.78;;;;;;;;;;5117133;28;20408;-84
2023/08/29 11:45:48;;;;;;;2.47;2.30;;;;;;;;;;5121931;28;20393;-84
2023/08/29 11:48:20;;;;;;;3.20;3.00;;;;;;;;;;5123938;28;20738;-84
2023/08/29 11:50:46;;;;;;;2.70;2.53;;;;;;;;;;5124086;28;20392;-84
2023/08/29 11:53:21;;;;;;;2.10;2.00;;;;;;;;;;5125175;28;20438;-84
2023/08/29 11:55:47;;;;;;;2.63;2.42;;;;;;;;;;5125108;28;20372;-84
2023/08/29 11:58:12;;;;;;;2.33;2.22;;;;;;;;;;5106283;28;20381;-84
2023/08/29 12:00:39;;;;;;;2.50;2.35;;;;;;;;;;5125127;28;20380;-83
2023/08/29 12:03:05;;;;;;;2.85;2.65;;;;;;;;;;5124430;28;20462;-84
2023/08/29 12:05:32;;;;;;;2.75;2.55;;;;;;;;;;5121820;28;20368;-84
2023/08/29 12:07:58;;;;;;;2.77;2.57;;;;;;;;;;5125152;28;20455;-84
2023/08/29 12:10:26;;;;;;;2.80;2.60;;;;;;;;;;5124573;28;20391;-84
2023/08/29 12:12:52;;;;;;;2.50;2.40;;;;;;;;;;5125559;28;20384;-84
2023/08/29 12:15:18;;;;;;;2.50;2.40;;;;;;;;;;5110418;28;20372;-84
2023/08/29 12:17:47;;;;;;;2.83;2.63;;;;;;;;;;5125359;28;20383;-84
2023/08/29 12:20:13;;;;;;;2.72;2.53;;;;;;;;;;5110747;28;20394;-84
2023/08/29 12:22:47;;;;;;;2.55;2.35;;;;;;;;;;5124302;28;20463;-84
2023/08/29 12:25:13;;;;;;;2.20;2.10;;;;;;;;;;5124333;28;20389;-84
2023/08/29 12:27:44;;;;;;;2.70;2.60;;;;;;;;;;5124145;28;20372;-84
2023/08/29 12:30:14;;;;;;;2.60;2.40;;;;;;;;;;5123517;28;20368;-84
2023/08/29 12:32:40;;;;;;;2.72;2.55;;;;;;;;;;5124068;28;20383;-84
2023/08/29 12:35:07;;;;;;;2.60;2.40;;;;;;;;;;5124127;28;20377;-84
2023/08/29 12:37:33;;;;;;;2.35;2.25;;;;;;;;;;5119490;28;20417;-84
2023/08/29 12:40:02;;;;;;;2.50;2.25;;;;;;;;;;5103460;28;20393;-84
2023/08/29 12:42:28;;;;;;;2.38;2.17;;;;;;;;;;5096820;28;20426;-84
2023/08/29 12:44:54;;;;;;;2.30;2.20;;;;;;;;;;5114607;28;20444;-84
2023/08/29 12:47:20;;;;;;;2.10;2.00;;;;;;;;;;5122154;28;20413;-84
2023/08/29 12:49:46;;;;;;;2.50;2.30;;;;;;;;;;5116463;28;20378;-84
2023/08/29 12:52:14;;;;;;;2.10;2.00;;;;;;;;;;5118462;28;20967;-84
2023/08/29 12:54:42;;;;;;;2.22;2.08;;;;;;;;;;5121302;28;20837;-84
2023/08/29 12:57:08;;;;;;;2.10;2.00;;;;;;;;;;5124131;28;20388;-84
2023/08/29 12:59:34;;;;;;;2.27;2.10;;;;;;;;;;5120127;28;20816;-84
2023/08/29 13:02:02;;;;;;;2.38;2.28;;;;;;;;;;5108050;28;20381;-84
2023/08/29 13:04:28;;;;;;;2.28;1.98;;;;;;;;;;5117385;28;20419;-84
2023/08/29 13:06:54;;;;;;;2.15;2.05;;;;;;;;;;5119440;28;20457;-84
2023/08/29 13:09:21;;;;;;;2.40;1.90;;;;;;;;;;5114341;28;20379;-84
2023/08/29 13:11:47;;;;;;;1.85;1.75;;;;;;;;;;5107133;28;20402;-84
2023/08/29 13:14:12;;;;;;;1.90;1.80;;;;;;;;;;5121766;28;20380;-84
2023/08/29 13:16:39;;;;;;;2.47;2.38;;;;;;;;;;5123091;28;20376;-84
2023/08/29 13:19:05;;;;;;;2.67;2.47;;;;;;;;;;5123455;28;20412;-84
2023/08/29 13:21:31;;;;;;;2.78;2.58;;;;;;;;;;5122621;28;20412;-84
2023/08/29 13:23:57;;;;;;;3.30;2.33;;;;;;;;;;5107749;28;20877;-84
2023/08/29 13:26:24;;;;;;;2.33;2.22;;;;;;;;;;5120039;28;20444;-84
2023/08/29 13:28:50;;;;;;;2.20;2.10;;;;;;;;;;5109001;28;20726;-84
2023/08/29 13:31:18;;;;;;;2.10;2.00;;;;;;;;;;5123135;28;20396;-84
2023/08/29 13:33:46;;;;;;;2.00;1.90;;;;;;;;;;5123817;28;20376;-84
2023/08/29 13:38:40;;;;;;;2.30;2.03;;;;;;;;;;5069352;28;20443;-81
2023/08/29 13:41:07;;;;;;;2.70;2.50;;;;;;;;;;5071393;28;20387;-81
2023/08/29 13:43:33;;;;;;;2.50;2.40;;;;;;;;;;5073075;28;20406;-81
2023/08/29 13:45:59;;;;;;;2.60;2.22;;;;;;;;;;5054726;28;20900;-81
2023/08/29 13:48:25;;;;;;;2.55;2.35;;;;;;;;;;5055494;28;20415;-79
2023/08/29 13:50:54;;;;;;;2.10;2.00;;;;;;;;;;5055866;28;20391;-79
2023/08/29 13:53:20;;;;;;;2.08;1.98;;;;;;;;;;5073963;28;20486;-79
2023/08/29 13:55:47;;;;;;;2.05;1.95;;;;;;;;;;5053284;28;20802;-82
2023/08/29 13:58:13;;;;;;;2.30;2.10;;;;;;;;;;5073905;28;20880;-79
2023/08/29 14:00:39;;;;;;;2.10;1.90;;;;;;;;;;5072921;28;20384;-79
2023/08/29 14:03:05;;;;;;;2.30;2.10;;;;;;;;;;5073427;28;20411;-79
2023/08/29 14:05:32;;;;;;;1.80;1.70;;;;;;;;;;5074021;28;20380;-79
2023/08/29 14:07:59;;;;;;;1.80;1.70;;;;;;;;;;5074253;28;20383;-79
2023/08/29 14:10:25;;;;;;;2.00;1.90;;;;;;;;;;5070803;28;20454;-79
2023/08/29 14:12:51;;;;;;;1.73;1.63;;;;;;;;;;5073509;28;20514;-79
2023/08/29 14:15:17;;;;;;;2.10;1.90;;;;;;;;;;5073318;28;20429;-79
2023/08/29 14:17:43;;;;;;;1.90;1.80;;;;;;;;;;5073619;28;20749;-79
2023/08/29 14:20:09;;;;;;;2.40;2.30;;;;;;;;;;5072830;28;20384;-79
2023/08/29 14:22:35;;;;;;;2.40;2.20;;;;;;;;;;5073378;28;20921;-79
2023/08/29 14:25:01;;;;;;;2.58;1.90;;;;;;;;;;5072827;28;20911;-79
2023/08/29 14:27:27;;;;;;;2.08;1.98;;;;;;;;;;5073491;28;20423;-79
2023/08/29 14:29:53;;;;;;;2.13;2.03;;;;;;;;;;5073332;28;20388;-79
2023/08/29 14:32:19;;;;;;;2.53;2.33;;;;;;;;;;5073058;28;20383;-79
2023/08/29 14:34:45;;;;;;;2.58;2.38;;;;;;;;;;5073444;28;20388;-79
2023/08/29 14:37:11;;;;;;;2.50;2.30;;;;;;;;;;5073434;28;20476;-79
2023/08/29 14:39:37;;;;;;;2.75;2.55;;;;;;;;;;5073521;28;20387;-79
2023/08/29 14:42:03;;;;;;;3.10;2.90;;;;;;;;;;5072497;28;20422;-79